sensor_id;sensor_type;location;lat;lon;timestamp;pressure;altitude;pressure_sealevel;temperature;humidity
54455;BME280;40364;52.270;10.546;2024-03-23T00:55:21;99875.78;;;24.54;35.60
54455;BME280;40364;52.270;10.546;2024-03-23T00:57:48;99864.97;;;25.34;34.93
54455;BME280;40364;52.270;10.546;2024-03-23T01:00:14;99857.72;;;23.93;37.14
54455;BME280;40364;52.270;10.546;2024-03-23T01:02:42;99865.09;;;24.70;36.58
54455;BME280;40364;52.270;10.546;2024-03-23T01:05:08;99860.66;;;23.90;37.23
54455;BME280;40364;52.270;10.546;2024-03-23T01:07:35;99862.47;;;24.38;35.68
54455;BME280;40364;52.270;10.546;2024-03-23T01:10:00;99852.63;;;24.77;35.43
54455;BME280;40364;52.270;10.546;2024-03-23T01:12:27;99850.09;;;25.17;34.85
54455;BME280;40364;52.270;10.546;2024-03-23T01:14:52;99856.88;;;24.47;35.89
54455;BME280;40364;52.270;10.546;2024-03-23T01:17:19;99849.28;;;25.16;34.81
54455;BME280;40364;52.270;10.546;2024-03-23T01:19:46;99850.38;;;24.46;36.08
54455;BME280;40364;52.270;10.546;2024-03-23T01:22:13;99834.47;;;25.22;34.29
54455;BME280;40364;52.270;10.546;2024-03-23T01:24:38;99830.75;;;23.85;35.54
54455;BME280;40364;52.270;10.546;2024-03-23T01:27:05;99836.84;;;23.42;36.15
54455;BME280;40364;52.270;10.546;2024-03-23T01:29:30;99827.88;;;23.43;36.33
54455;BME280;40364;52.270;10.546;2024-03-23T01:31:57;99827.78;;;23.76;35.48
54455;BME280;40364;52.270;10.546;2024-03-23T01:34:23;99818.97;;;24.25;34.89
54455;BME280;40364;52.270;10.546;2024-03-23T01:36:51;99813.28;;;25.88;33.47
54455;BME280;40364;52.270;10.546;2024-03-23T01:39:17;99814.06;;;24.50;33.93
54455;BME280;40364;52.270;10.546;2024-03-23T01:41:43;99801.81;;;24.88;33.72
54455;BME280;40364;52.270;10.546;2024-03-23T01:44:09;99803.59;;;24.47;33.89
54455;BME280;40364;52.270;10.546;2024-03-23T01:46:37;99796.94;;;25.23;33.51
54455;BME280;40364;52.270;10.546;2024-03-23T01:49:03;99794.75;;;24.45;34.93
54455;BME280;40364;52.270;10.546;2024-03-23T01:51:30;99790.09;;;24.86;34.37
54455;BME280;40364;52.270;10.546;2024-03-23T01:53:58;99783.00;;;25.03;34.66
54455;BME280;40364;52.270;10.546;2024-03-23T01:56:28;99790.63;;;24.59;34.09
54455;BME280;40364;52.270;10.546;2024-03-23T01:58:54;99796.38;;;23.38;35.08
54455;BME280;40364;52.270;10.546;2024-03-23T02:01:20;99789.22;;;23.88;34.79
54455;BME280;40364;52.270;10.546;2024-03-23T02:03:46;99777.84;;;23.88;35.29
54455;BME280;40364;52.270;10.546;2024-03-23T02:06:12;99772.03;;;23.53;35.88
54455;BME280;40364;52.270;10.546;2024-03-23T02:08:39;99770.97;;;22.89;36.79
54455;BME280;40364;52.270;10.546;2024-03-23T02:11:07;99772.06;;;24.55;35.26
54455;BME280;40364;52.270;10.546;2024-03-23T02:13:33;99768.88;;;24.52;34.36
54455;BME280;40364;52.270;10.546;2024-03-23T02:16:00;99779.59;;;24.36;34.40
54455;BME280;40364;52.270;10.546;2024-03-23T02:18:25;99775.88;;;23.01;36.14
54455;BME280;40364;52.270;10.546;2024-03-23T02:20:52;99758.41;;;23.86;35.57
54455;BME280;40364;52.270;10.546;2024-03-23T02:23:19;99757.06;;;24.41;35.24
54455;BME280;40364;52.270;10.546;2024-03-23T02:25:46;99752.72;;;23.99;34.93
54455;BME280;40364;52.270;10.546;2024-03-23T02:28:12;99752.78;;;23.57;35.34
54455;BME280;40364;52.270;10.546;2024-03-23T02:30:39;99745.44;;;23.98;35.79
54455;BME280;40364;52.270;10.546;2024-03-23T02:33:04;99742.22;;;23.58;36.28
54455;BME280;40364;52.270;10.546;2024-03-23T02:35:31;99735.28;;;24.47;35.48
54455;BME280;40364;52.270;10.546;2024-03-23T02:37:57;99726.78;;;24.35;35.05
54455;BME280;40364;52.270;10.546;2024-03-23T02:40:25;99732.88;;;25.80;34.34
54455;BME280;40364;52.270;10.546;2024-03-23T02:42:54;99730.53;;;23.27;37.31
54455;BME280;40364;52.270;10.546;2024-03-23T02:45:21;99732.81;;;23.99;36.16
54455;BME280;40364;52.270;10.546;2024-03-23T02:47:47;99722.56;;;23.63;36.47
54455;BME280;40364;52.270;10.546;2024-03-23T02:50:17;99726.91;;;23.80;36.43
54455;BME280;40364;52.270;10.546;2024-03-23T02:52:44;99725.13;;;23.45;37.35
54455;BME280;40364;52.270;10.546;2024-03-23T02:55:14;99717.09;;;22.86;38.04
54455;BME280;40364;52.270;10.546;2024-03-23T02:57:41;99730.66;;;24.03;36.62
54455;BME280;40364;52.270;10.546;2024-03-23T03:00:08;99714.38;;;21.84;39.30
54455;BME280;40364;52.270;10.546;2024-03-23T03:02:34;99711.13;;;21.30;40.40
54455;BME280;40364;52.270;10.546;2024-03-23T03:05:01;99711.38;;;22.57;38.29
54455;BME280;40364;52.270;10.546;2024-03-23T03:07:27;99705.09;;;23.36;37.16
54455;BME280;40364;52.270;10.546;2024-03-23T03:09:53;99718.78;;;23.12;37.65
54455;BME280;40364;52.270;10.546;2024-03-23T03:12:19;99709.59;;;23.62;36.93
54455;BME280;40364;52.270;10.546;2024-03-23T03:14:47;99694.81;;;23.93;36.14
54455;BME280;40364;52.270;10.546;2024-03-23T03:17:13;99694.09;;;22.51;37.06
54455;BME280;40364;52.270;10.546;2024-03-23T03:19:40;99699.56;;;23.58;36.80
54455;BME280;40364;52.270;10.546;2024-03-23T03:22:06;99680.69;;;24.27;34.82
54455;BME280;40364;52.270;10.546;2024-03-23T03:24:32;99686.72;;;22.54;37.93
54455;BME280;40364;52.270;10.546;2024-03-23T03:26:58;99687.31;;;21.64;39.68
54455;BME280;40364;52.270;10.546;2024-03-23T03:29:24;99693.88;;;20.15;42.37
54455;BME280;40364;52.270;10.546;2024-03-23T03:31:52;99684.19;;;20.39;43.21
54455;BME280;40364;52.270;10.546;2024-03-23T03:34:18;99676.97;;;21.73;40.23
54455;BME280;40364;52.270;10.546;2024-03-23T03:36:44;99685.06;;;21.39;40.47
54455;BME280;40364;52.270;10.546;2024-03-23T03:39:11;99679.72;;;21.41;40.18
54455;BME280;40364;52.270;10.546;2024-03-23T03:41:37;99672.53;;;21.72;39.98
54455;BME280;40364;52.270;10.546;2024-03-23T03:44:04;99686.59;;;23.02;37.61
54455;BME280;40364;52.270;10.546;2024-03-23T03:46:30;99688.50;;;22.47;38.08
54455;BME280;40364;52.270;10.546;2024-03-23T03:48:58;99688.75;;;22.98;37.15
54455;BME280;40364;52.270;10.546;2024-03-23T03:51:23;99681.00;;;22.70;37.84
54455;BME280;40364;52.270;10.546;2024-03-23T03:53:50;99687.03;;;22.10;38.48
54455;BME280;40364;52.270;10.546;2024-03-23T03:56:16;99683.13;;;22.82;37.66
54455;BME280;40364;52.270;10.546;2024-03-23T03:58:43;99689.72;;;21.65;39.18
54455;BME280;40364;52.270;10.546;2024-03-23T04:01:09;99669.44;;;23.60;36.64
54455;BME280;40364;52.270;10.546;2024-03-23T04:03:35;99665.91;;;23.94;35.46
54455;BME280;40364;52.270;10.546;2024-03-23T04:06:03;99655.91;;;24.84;34.39
54455;BME280;40364;52.270;10.546;2024-03-23T04:08:33;99668.50;;;25.17;32.81
54455;BME280;40364;52.270;10.546;2024-03-23T04:10:58;99666.38;;;23.67;35.39
54455;BME280;40364;52.270;10.546;2024-03-23T04:13:25;99661.00;;;24.33;34.26
54455;BME280;40364;52.270;10.546;2024-03-23T04:15:53;99655.88;;;26.39;32.40
54455;BME280;40364;52.270;10.546;2024-03-23T04:18:20;99653.19;;;24.46;33.59
54455;BME280;40364;52.270;10.546;2024-03-23T04:20:46;99655.22;;;24.58;33.96
54455;BME280;40364;52.270;10.546;2024-03-23T04:23:14;99647.13;;;25.44;33.25
54455;BME280;40364;52.270;10.546;2024-03-23T04:25:40;99654.66;;;24.50;33.68
54455;BME280;40364;52.270;10.546;2024-03-23T04:28:07;99631.72;;;23.72;35.28
54455;BME280;40364;52.270;10.546;2024-03-23T04:30:32;99641.66;;;24.84;33.50
54455;BME280;40364;52.270;10.546;2024-03-23T04:32:59;99645.44;;;24.12;34.32
54455;BME280;40364;52.270;10.546;2024-03-23T04:35:26;99644.53;;;23.90;34.36
54455;BME280;40364;52.270;10.546;2024-03-23T04:37:53;99646.38;;;23.83;35.16
54455;BME280;40364;52.270;10.546;2024-03-23T04:40:22;99642.72;;;23.96;35.58
54455;BME280;40364;52.270;10.546;2024-03-23T04:42:48;99649.63;;;23.31;36.13
54455;BME280;40364;52.270;10.546;2024-03-23T04:45:15;99643.31;;;22.98;36.30
54455;BME280;40364;52.270;10.546;2024-03-23T04:47:42;99632.28;;;23.55;35.48
54455;BME280;40364;52.270;10.546;2024-03-23T04:50:09;99631.91;;;24.03;34.43
54455;BME280;40364;52.270;10.546;2024-03-23T04:52:36;99627.97;;;23.75;34.66
54455;BME280;40364;52.270;10.546;2024-03-23T04:55:04;99630.56;;;23.44;36.04
54455;BME280;40364;52.270;10.546;2024-03-23T04:57:30;99626.75;;;24.58;34.34
54455;BME280;40364;52.270;10.546;2024-03-23T04:59:57;99617.72;;;21.95;37.97
54455;BME280;40364;52.270;10.546;2024-03-23T05:02:23;99622.69;;;22.24;36.60
54455;BME280;40364;52.270;10.546;2024-03-23T05:04:51;99626.47;;;23.45;35.36
54455;BME280;40364;52.270;10.546;2024-03-23T05:07:19;99606.59;;;24.18;33.91
54455;BME280;40364;52.270;10.546;2024-03-23T05:09:46;99609.59;;;23.26;35.65
54455;BME280;40364;52.270;10.546;2024-03-23T05:12:12;99596.16;;;24.49;33.90
54455;BME280;40364;52.270;10.546;2024-03-23T05:14:40;99590.19;;;24.57;34.62
54455;BME280;40364;52.270;10.546;2024-03-23T05:17:05;99601.00;;;23.42;35.02
54455;BME280;40364;52.270;10.546;2024-03-23T05:19:32;99593.50;;;23.61;34.91
54455;BME280;40364;52.270;10.546;2024-03-23T05:21:57;99610.03;;;24.13;34.42
54455;BME280;40364;52.270;10.546;2024-03-23T05:24:24;99600.63;;;23.91;34.44
54455;BME280;40364;52.270;10.546;2024-03-23T05:26:50;99599.00;;;24.15;33.95
54455;BME280;40364;52.270;10.546;2024-03-23T05:29:16;99590.44;;;23.80;34.20
54455;BME280;40364;52.270;10.546;2024-03-23T05:31:43;99588.16;;;25.01;33.27
54455;BME280;40364;52.270;10.546;2024-03-23T05:34:10;99585.59;;;24.03;33.99
54455;BME280;40364;52.270;10.546;2024-03-23T05:36:36;99594.88;;;24.50;33.23
54455;BME280;40364;52.270;10.546;2024-03-23T05:39:03;99588.72;;;23.45;35.42
54455;BME280;40364;52.270;10.546;2024-03-23T05:41:28;99592.50;;;22.01;38.27
54455;BME280;40364;52.270;10.546;2024-03-23T05:43:55;99585.91;;;22.78;36.23
54455;BME280;40364;52.270;10.546;2024-03-23T05:46:20;99592.44;;;22.62;36.30
54455;BME280;40364;52.270;10.546;2024-03-23T05:48:50;99580.03;;;22.85;36.78
54455;BME280;40364;52.270;10.546;2024-03-23T05:51:16;99594.69;;;21.08;37.52
54455;BME280;40364;52.270;10.546;2024-03-23T05:53:43;99595.31;;;22.46;35.52
54455;BME280;40364;52.270;10.546;2024-03-23T05:56:09;99610.06;;;23.24;35.00
54455;BME280;40364;52.270;10.546;2024-03-23T05:58:35;99595.72;;;23.91;34.02
54455;BME280;40364;52.270;10.546;2024-03-23T06:01:01;99594.41;;;23.83;33.95
54455;BME280;40364;52.270;10.546;2024-03-23T06:03:29;99604.03;;;23.09;35.52
54455;BME280;40364;52.270;10.546;2024-03-23T06:05:56;99591.94;;;22.06;36.06
54455;BME280;40364;52.270;10.546;2024-03-23T06:08:23;99592.47;;;22.46;35.33
54455;BME280;40364;52.270;10.546;2024-03-23T06:10:49;99585.81;;;21.06;36.63
54455;BME280;40364;52.270;10.546;2024-03-23T06:13:16;99594.69;;;22.96;34.14
54455;BME280;40364;52.270;10.546;2024-03-23T06:15:42;99590.50;;;21.33;36.48
54455;BME280;40364;52.270;10.546;2024-03-23T06:18:10;99585.72;;;22.56;34.59
54455;BME280;40364;52.270;10.546;2024-03-23T06:20:40;99582.78;;;23.90;33.19
54455;BME280;40364;52.270;10.546;2024-03-23T06:23:08;99593.91;;;24.44;32.90
54455;BME280;40364;52.270;10.546;2024-03-23T06:25:33;99603.25;;;23.09;34.15
54455;BME280;40364;52.270;10.546;2024-03-23T06:28:00;99599.59;;;23.08;33.25
54455;BME280;40364;52.270;10.546;2024-03-23T06:30:27;99596.50;;;20.99;36.55
54455;BME280;40364;52.270;10.546;2024-03-23T06:32:54;99594.22;;;20.74;36.35
54455;BME280;40364;52.270;10.546;2024-03-23T06:35:20;99593.00;;;21.47;36.02
54455;BME280;40364;52.270;10.546;2024-03-23T06:37:47;99588.84;;;21.84;34.56
54455;BME280;40364;52.270;10.546;2024-03-23T06:40:14;99585.13;;;22.03;35.13
54455;BME280;40364;52.270;10.546;2024-03-23T06:42:41;99584.28;;;20.66;35.00
54455;BME280;40364;52.270;10.546;2024-03-23T06:45:07;99594.84;;;21.01;34.53
54455;BME280;40364;52.270;10.546;2024-03-23T06:47:33;99596.25;;;21.29;33.63
54455;BME280;40364;52.270;10.546;2024-03-23T06:50:00;99603.63;;;22.08;32.42
54455;BME280;40364;52.270;10.546;2024-03-23T06:52:28;99610.63;;;21.18;34.08
54455;BME280;40364;52.270;10.546;2024-03-23T06:54:53;99601.75;;;20.61;33.93
54455;BME280;40364;52.270;10.546;2024-03-23T06:57:22;99605.59;;;22.69;32.59
54455;BME280;40364;52.270;10.546;2024-03-23T06:59:47;99590.94;;;22.87;31.69
54455;BME280;40364;52.270;10.546;2024-03-23T07:02:15;99597.06;;;22.85;32.48
54455;BME280;40364;52.270;10.546;2024-03-23T07:04:41;99589.81;;;22.68;32.18
54455;BME280;40364;52.270;10.546;2024-03-23T07:07:11;99589.19;;;24.16;30.06
54455;BME280;40364;52.270;10.546;2024-03-23T07:09:37;99587.13;;;22.77;31.23
54455;BME280;40364;52.270;10.546;2024-03-23T07:12:06;99585.38;;;22.83;30.63
54455;BME280;40364;52.270;10.546;2024-03-23T07:14:44;99585.31;;;25.01;28.65
54455;BME280;40364;52.270;10.546;2024-03-23T07:17:11;99597.13;;;24.21;29.88
54455;BME280;40364;52.270;10.546;2024-03-23T07:19:36;99595.53;;;23.35;30.56
54455;BME280;40364;52.270;10.546;2024-03-23T07:22:03;99598.28;;;23.76;30.96
54455;BME280;40364;52.270;10.546;2024-03-23T07:24:28;99592.03;;;24.16;30.15
54455;BME280;40364;52.270;10.546;2024-03-23T07:26:56;99584.53;;;23.62;30.66
54455;BME280;40364;52.270;10.546;2024-03-23T07:29:23;99585.53;;;23.56;30.80
54455;BME280;40364;52.270;10.546;2024-03-23T07:31:51;99586.47;;;25.12;28.51
54455;BME280;40364;52.270;10.546;2024-03-23T07:34:17;99585.91;;;22.78;31.37
54455;BME280;40364;52.270;10.546;2024-03-23T07:36:43;99590.06;;;23.15;31.05
54455;BME280;40364;52.270;10.546;2024-03-23T07:39:09;99594.75;;;23.47;30.24
54455;BME280;40364;52.270;10.546;2024-03-23T07:41:36;99589.63;;;24.27;28.86
54455;BME280;40364;52.270;10.546;2024-03-23T07:44:02;99592.00;;;24.41;28.50
54455;BME280;40364;52.270;10.546;2024-03-23T07:46:28;99596.00;;;24.31;28.17
54455;BME280;40364;52.270;10.546;2024-03-23T07:48:55;99598.72;;;23.62;29.60
54455;BME280;40364;52.270;10.546;2024-03-23T07:51:23;99609.59;;;24.93;27.69
54455;BME280;40364;52.270;10.546;2024-03-23T07:53:49;99595.41;;;22.71;30.55
54455;BME280;40364;52.270;10.546;2024-03-23T07:56:16;99601.06;;;23.00;30.31
54455;BME280;40364;52.270;10.546;2024-03-23T07:58:43;99576.50;;;22.81;30.66
54455;BME280;40364;52.270;10.546;2024-03-23T08:01:12;99592.09;;;23.02;30.51
54455;BME280;40364;52.270;10.546;2024-03-23T08:03:39;99602.59;;;23.43;29.64
54455;BME280;40364;52.270;10.546;2024-03-23T08:06:09;99610.56;;;23.48;30.25
54455;BME280;40364;52.270;10.546;2024-03-23T08:08:35;99592.94;;;22.44;31.10
54455;BME280;40364;52.270;10.546;2024-03-23T08:11:04;99604.94;;;20.43;34.03
54455;BME280;40364;52.270;10.546;2024-03-23T08:13:30;99596.53;;;20.16;34.35
54455;BME280;40364;52.270;10.546;2024-03-23T08:15:57;99596.97;;;22.89;30.59
54455;BME280;40364;52.270;10.546;2024-03-23T08:18:29;99599.38;;;21.51;33.29
54455;BME280;40364;52.270;10.546;2024-03-23T08:21:05;99587.91;;;20.46;33.93
54455;BME280;40364;52.270;10.546;2024-03-23T08:23:36;99592.59;;;20.53;35.46
54455;BME280;40364;52.270;10.546;2024-03-23T08:26:07;99594.22;;;21.30;34.17
54455;BME280;40364;52.270;10.546;2024-03-23T08:28:37;99582.34;;;23.41;30.48
54455;BME280;40364;52.270;10.546;2024-03-23T08:31:05;99581.31;;;21.94;32.35
54455;BME280;40364;52.270;10.546;2024-03-23T08:33:31;99580.06;;;21.46;32.42
54455;BME280;40364;52.270;10.546;2024-03-23T08:35:59;99586.16;;;22.26;32.83
54455;BME280;40364;52.270;10.546;2024-03-23T08:38:26;99581.09;;;23.67;30.21
54455;BME280;40364;52.270;10.546;2024-03-23T08:40:58;99579.22;;;23.99;29.25
54455;BME280;40364;52.270;10.546;2024-03-23T08:43:25;99588.94;;;24.58;29.18
54455;BME280;40364;52.270;10.546;2024-03-23T08:45:52;99581.00;;;24.74;28.65
54455;BME280;40364;52.270;10.546;2024-03-23T08:48:18;99585.47;;;22.79;31.58
54455;BME280;40364;52.270;10.546;2024-03-23T08:50:46;99594.41;;;20.83;34.54
54455;BME280;40364;52.270;10.546;2024-03-23T08:53:12;99584.13;;;20.53;35.28
54455;BME280;40364;52.270;10.546;2024-03-23T08:55:39;99582.00;;;21.33;34.65
54455;BME280;40364;52.270;10.546;2024-03-23T08:58:06;99592.56;;;22.13;34.49
54455;BME280;40364;52.270;10.546;2024-03-23T09:00:34;99596.84;;;19.48;37.23
54455;BME280;40364;52.270;10.546;2024-03-23T09:03:00;99595.09;;;21.43;34.76
54455;BME280;40364;52.270;10.546;2024-03-23T09:05:32;99601.03;;;21.12;36.52
54455;BME280;40364;52.270;10.546;2024-03-23T09:08:05;99597.19;;;22.65;33.19
54455;BME280;40364;52.270;10.546;2024-03-23T09:10:38;99582.09;;;21.78;35.87
54455;BME280;40364;52.270;10.546;2024-03-23T09:13:10;99604.47;;;22.37;34.71
54455;BME280;40364;52.270;10.546;2024-03-23T09:15:46;99577.13;;;24.25;31.35
54455;BME280;40364;52.270;10.546;2024-03-23T09:20:57;99597.66;;;23.05;33.04
54455;BME280;40364;52.270;10.546;2024-03-23T09:23:23;99606.09;;;20.45;39.37
54455;BME280;40364;52.270;10.546;2024-03-23T09:25:49;99615.53;;;20.59;39.58
54455;BME280;40364;52.270;10.546;2024-03-23T09:28:16;99618.28;;;22.35;38.05
54455;BME280;40364;52.270;10.546;2024-03-23T09:30:43;99607.53;;;21.81;36.77
54455;BME280;40364;52.270;10.546;2024-03-23T09:35:37;99608.06;;;21.60;36.31
54455;BME280;40364;52.270;10.546;2024-03-23T09:38:04;99605.16;;;21.64;35.76
54455;BME280;40364;52.270;10.546;2024-03-23T09:40:30;99612.22;;;21.19;36.90
54455;BME280;40364;52.270;10.546;2024-03-23T09:42:56;99615.72;;;22.99;34.00
54455;BME280;40364;52.270;10.546;2024-03-23T09:45:27;99609.94;;;23.28;33.79
54455;BME280;40364;52.270;10.546;2024-03-23T09:47:55;99623.50;;;22.53;35.72
54455;BME280;40364;52.270;10.546;2024-03-23T09:50:21;99616.75;;;22.18;36.40
54455;BME280;40364;52.270;10.546;2024-03-23T09:52:48;99624.66;;;23.51;34.27
54455;BME280;40364;52.270;10.546;2024-03-23T09:55:14;99623.94;;;22.51;35.31
54455;BME280;40364;52.270;10.546;2024-03-23T09:57:41;99620.94;;;22.88;36.13
54455;BME280;40364;52.270;10.546;2024-03-23T10:00:08;99607.97;;;20.92;38.55
54455;BME280;40364;52.270;10.546;2024-03-23T10:02:37;99599.72;;;24.41;33.63
54455;BME280;40364;52.270;10.546;2024-03-23T10:05:03;99603.03;;;24.61;33.12
54455;BME280;40364;52.270;10.546;2024-03-23T10:07:29;99601.53;;;23.88;33.38
54455;BME280;40364;52.270;10.546;2024-03-23T10:09:56;99604.34;;;21.96;36.20
54455;BME280;40364;52.270;10.546;2024-03-23T10:12:23;99601.16;;;22.68;35.09
54455;BME280;40364;52.270;10.546;2024-03-23T10:14:50;99602.94;;;22.78;35.96
54455;BME280;40364;52.270;10.546;2024-03-23T10:17:16;99602.34;;;23.25;35.60
54455;BME280;40364;52.270;10.546;2024-03-23T10:19:46;99600.38;;;25.10;33.10
54455;BME280;40364;52.270;10.546;2024-03-23T10:22:14;99595.69;;;26.06;31.51
54455;BME280;40364;52.270;10.546;2024-03-23T10:24:41;99600.56;;;23.81;33.85
54455;BME280;40364;52.270;10.546;2024-03-23T10:27:07;99595.56;;;23.60;32.79
54455;BME280;40364;52.270;10.546;2024-03-23T10:29:34;99591.31;;;22.43;37.09
54455;BME280;40364;52.270;10.546;2024-03-23T10:32:09;99587.69;;;23.64;35.08
54455;BME280;40364;52.270;10.546;2024-03-23T10:34:36;99582.25;;;24.51;33.97
54455;BME280;40364;52.270;10.546;2024-03-23T10:37:04;99584.34;;;23.91;31.44
54455;BME280;40364;52.270;10.546;2024-03-23T10:39:32;99583.56;;;24.81;31.46
54455;BME280;40364;52.270;10.546;2024-03-23T10:42:01;99585.59;;;24.03;31.25
54455;BME280;40364;52.270;10.546;2024-03-23T10:44:29;99580.41;;;21.48;32.97
54455;BME280;40364;52.270;10.546;2024-03-23T10:46:57;99585.56;;;21.37;34.49
54455;BME280;40364;52.270;10.546;2024-03-23T10:49:26;99577.75;;;22.80;31.60
54455;BME280;40364;52.270;10.546;2024-03-23T10:51:53;99578.66;;;21.54;32.93
54455;BME280;40364;52.270;10.546;2024-03-23T10:54:22;99630.03;;;19.94;36.69
54455;BME280;40364;52.270;10.546;2024-03-23T10:56:53;99630.13;;;18.76;40.35
54455;BME280;40364;52.270;10.546;2024-03-23T10:59:22;99594.03;;;19.21;37.09
54455;BME280;40364;52.270;10.546;2024-03-23T11:01:54;99596.16;;;19.91;38.11
54455;BME280;40364;52.270;10.546;2024-03-23T11:04:39;99593.44;;;21.94;36.42
54455;BME280;40364;52.270;10.546;2024-03-23T11:07:29;99589.75;;;23.76;31.19
54455;BME280;40364;52.270;10.546;2024-03-23T11:09:58;99601.66;;;23.33;34.03
54455;BME280;40364;52.270;10.546;2024-03-23T11:12:31;99582.13;;;24.99;31.92
54455;BME280;40364;52.270;10.546;2024-03-23T11:15:03;99586.94;;;24.89;32.44
54455;BME280;40364;52.270;10.546;2024-03-23T11:17:29;99586.63;;;21.59;32.98
54455;BME280;40364;52.270;10.546;2024-03-23T11:19:57;99574.88;;;24.07;33.33
54455;BME280;40364;52.270;10.546;2024-03-23T11:22:40;99579.50;;;25.04;30.63
54455;BME280;40364;52.270;10.546;2024-03-23T11:25:17;99582.03;;;24.46;31.56
54455;BME280;40364;52.270;10.546;2024-03-23T11:27:44;99572.94;;;24.73;29.24
54455;BME280;40364;52.270;10.546;2024-03-23T11:30:12;99570.06;;;23.82;32.49
54455;BME280;40364;52.270;10.546;2024-03-23T11:32:38;99565.94;;;26.43;30.48
54455;BME280;40364;52.270;10.546;2024-03-23T11:35:06;99565.75;;;24.90;29.83
54455;BME280;40364;52.270;10.546;2024-03-23T11:37:32;99554.59;;;24.74;29.45
54455;BME280;40364;52.270;10.546;2024-03-23T11:39:59;99553.59;;;23.64;29.74
54455;BME280;40364;52.270;10.546;2024-03-23T11:42:27;99552.91;;;26.70;26.89
54455;BME280;40364;52.270;10.546;2024-03-23T11:44:53;99539.09;;;24.53;26.34
54455;BME280;40364;52.270;10.546;2024-03-23T11:47:19;99541.59;;;24.73;27.64
54455;BME280;40364;52.270;10.546;2024-03-23T11:49:48;99551.13;;;25.41;26.79
54455;BME280;40364;52.270;10.546;2024-03-23T11:52:15;99584.28;;;23.31;30.03
54455;BME280;40364;52.270;10.546;2024-03-23T11:54:43;99590.78;;;21.38;31.29
54455;BME280;40364;52.270;10.546;2024-03-23T11:57:09;99597.63;;;20.45;33.40
54455;BME280;40364;52.270;10.546;2024-03-23T11:59:37;99611.94;;;21.50;32.23
54455;BME280;40364;52.270;10.546;2024-03-23T12:02:07;99618.00;;;20.57;36.75
54455;BME280;40364;52.270;10.546;2024-03-23T12:04:35;99625.56;;;25.43;34.35
54455;BME280;40364;52.270;10.546;2024-03-23T12:07:11;99616.38;;;27.95;27.42
54455;BME280;40364;52.270;10.546;2024-03-23T12:09:39;99605.94;;;25.14;30.31
54455;BME280;40364;52.270;10.546;2024-03-23T12:12:10;99613.69;;;26.34;31.32
54455;BME280;40364;52.270;10.546;2024-03-23T12:14:39;99618.91;;;27.17;30.98
54455;BME280;40364;52.270;10.546;2024-03-23T12:17:09;99628.13;;;26.85;29.84
54455;BME280;40364;52.270;10.546;2024-03-23T12:19:36;99624.91;;;24.17;31.35
54455;BME280;40364;52.270;10.546;2024-03-23T12:22:03;99616.06;;;25.06;31.55
54455;BME280;40364;52.270;10.546;2024-03-23T12:24:30;99614.31;;;22.78;32.20
54455;BME280;40364;52.270;10.546;2024-03-23T12:27:00;99625.69;;;25.08;30.63
54455;BME280;40364;52.270;10.546;2024-03-23T12:29:28;99623.63;;;25.31;30.69
54455;BME280;40364;52.270;10.546;2024-03-23T12:31:55;99625.81;;;24.39;31.05
54455;BME280;40364;52.270;10.546;2024-03-23T12:34:22;99624.19;;;21.96;32.48
54455;BME280;40364;52.270;10.546;2024-03-23T12:39:14;99590.53;;;26.32;28.14
54455;BME280;40364;52.270;10.546;2024-03-23T12:41:40;99602.00;;;28.04;25.48
54455;BME280;40364;52.270;10.546;2024-03-23T12:44:07;99595.13;;;26.84;27.28
54455;BME280;40364;52.270;10.546;2024-03-23T12:46:34;99600.72;;;27.39;25.79
54455;BME280;40364;52.270;10.546;2024-03-23T12:49:02;99609.94;;;29.74;24.18
54455;BME280;40364;52.270;10.546;2024-03-23T12:51:28;99618.13;;;28.16;23.84
54455;BME280;40364;52.270;10.546;2024-03-23T12:53:54;99614.66;;;26.76;26.84
54455;BME280;40364;52.270;10.546;2024-03-23T12:56:20;99627.72;;;25.92;25.90
54455;BME280;40364;52.270;10.546;2024-03-23T12:58:47;99628.16;;;25.50;27.26
54455;BME280;40364;52.270;10.546;2024-03-23T13:01:16;99639.91;;;23.03;30.83
54455;BME280;40364;52.270;10.546;2024-03-23T13:03:46;99646.59;;;24.49;28.94
54455;BME280;40364;52.270;10.546;2024-03-23T13:06:13;99641.59;;;24.75;28.41
54455;BME280;40364;52.270;10.546;2024-03-23T13:08:40;99664.47;;;24.49;28.91
54455;BME280;40364;52.270;10.546;2024-03-23T13:11:06;99674.75;;;22.46;33.79
54455;BME280;40364;52.270;10.546;2024-03-23T13:13:33;99679.28;;;21.78;34.29
54455;BME280;40364;52.270;10.546;2024-03-23T13:15:59;99666.22;;;22.62;34.97
54455;BME280;40364;52.270;10.546;2024-03-23T13:18:26;99642.50;;;23.77;32.40
54455;BME280;40364;52.270;10.546;2024-03-23T13:20:52;99632.66;;;24.16;29.96
54455;BME280;40364;52.270;10.546;2024-03-23T13:23:20;99626.97;;;24.16;32.60
54455;BME280;40364;52.270;10.546;2024-03-23T13:25:50;99630.66;;;27.52;28.50
54455;BME280;40364;52.270;10.546;2024-03-23T13:28:18;99631.44;;;27.71;27.20
54455;BME280;40364;52.270;10.546;2024-03-23T13:30:50;99633.69;;;29.90;25.45
54455;BME280;40364;52.270;10.546;2024-03-23T13:33:16;99633.50;;;28.04;26.13
54455;BME280;40364;52.270;10.546;2024-03-23T13:35:49;99639.25;;;27.62;27.05
54455;BME280;40364;52.270;10.546;2024-03-23T13:38:16;99640.47;;;25.47;29.77
54455;BME280;40364;52.270;10.546;2024-03-23T13:40:53;99636.88;;;28.26;27.14
54455;BME280;40364;52.270;10.546;2024-03-23T13:43:20;99635.59;;;27.52;27.00
54455;BME280;40364;52.270;10.546;2024-03-23T13:45:46;99637.22;;;25.27;29.56
54455;BME280;40364;52.270;10.546;2024-03-23T13:48:13;99645.66;;;24.05;30.91
54455;BME280;40364;52.270;10.546;2024-03-23T13:50:39;99640.28;;;25.10;29.49
54455;BME280;40364;52.270;10.546;2024-03-23T13:53:05;99632.53;;;22.77;33.22